sensor_id;sensor_type;location;lat;lon;timestamp;P1;durP1;ratioP1;P2;durP2;ratioP2
53293;SDS011;39181;53.440;5.644;2022-11-21T00:00:03;24.98;;;12.60;;
53293;SDS011;39181;53.440;5.644;2022-11-21T00:02:31;22.60;;;12.77;;
53293;SDS011;39181;53.440;5.644;2022-11-21T00:04:56;21.25;;;12.60;;
53293;SDS011;39181;53.440;5.644;2022-11-21T00:07:22;20.65;;;12.43;;
53293;SDS011;39181;53.440;5.644;2022-11-21T00:09:47;23.73;;;13.43;;
53293;SDS011;39181;53.440;5.644;2022-11-21T00:12:14;19.13;;;11.00;;
53293;SDS011;39181;53.440;5.644;2022-11-21T00:14:40;21.77;;;12.63;;
53293;SDS011;39181;53.440;5.644;2022-11-21T00:17:06;20.48;;;12.52;;
53293;SDS011;39181;53.440;5.644;2022-11-21T00:19:32;24.15;;;12.88;;
53293;SDS011;39181;53.440;5.644;2022-11-21T00:21:57;20.02;;;13.27;;
53293;SDS011;39181;53.440;5.644;2022-11-21T00:24:23;18.48;;;12.02;;
53293;SDS011;39181;53.440;5.644;2022-11-21T00:26:48;23.27;;;13.02;;
53293;SDS011;39181;53.440;5.644;2022-11-21T00:29:14;20.33;;;11.90;;
53293;SDS011;39181;53.440;5.644;2022-11-21T00:31:39;28.38;;;12.93;;
53293;SDS011;39181;53.440;5.644;2022-11-21T00:34:05;20.15;;;12.57;;
53293;SDS011;39181;53.440;5.644;2022-11-21T00:36:30;26.48;;;12.82;;
53293;SDS011;39181;53.440;5.644;2022-11-21T00:38:56;22.48;;;12.88;;
53293;SDS011;39181;53.440;5.644;2022-11-21T00:41:21;22.42;;;13.07;;
53293;SDS011;39181;53.440;5.644;2022-11-21T00:43:47;23.52;;;12.20;;
53293;SDS011;39181;53.440;5.644;2022-11-21T00:46:12;27.42;;;14.63;;
53293;SDS011;39181;53.440;5.644;2022-11-21T00:48:38;25.50;;;13.35;;
53293;SDS011;39181;53.440;5.644;2022-11-21T00:51:03;20.27;;;12.50;;
53293;SDS011;39181;53.440;5.644;2022-11-21T00:53:29;23.80;;;13.00;;
53293;SDS011;39181;53.440;5.644;2022-11-21T00:55:55;20.70;;;12.15;;
53293;SDS011;39181;53.440;5.644;2022-11-21T00:58:21;19.15;;;12.32;;
53293;SDS011;39181;53.440;5.644;2022-11-21T01:00:47;18.75;;;11.43;;
53293;SDS011;39181;53.440;5.644;2022-11-21T01:03:12;23.20;;;12.27;;
53293;SDS011;39181;53.440;5.644;2022-11-21T01:05:38;21.10;;;12.02;;
53293;SDS011;39181;53.440;5.644;2022-11-21T01:08:03;21.02;;;12.50;;
53293;SDS011;39181;53.440;5.644;2022-11-21T01:10:29;22.35;;;11.93;;
53293;SDS011;39181;53.440;5.644;2022-11-21T01:12:55;24.42;;;12.25;;
53293;SDS011;39181;53.440;5.644;2022-11-21T01:15:20;21.30;;;12.20;;
53293;SDS011;39181;53.440;5.644;2022-11-21T01:17:46;22.30;;;11.85;;
53293;SDS011;39181;53.440;5.644;2022-11-21T01:20:11;22.02;;;12.38;;
53293;SDS011;39181;53.440;5.644;2022-11-21T01:22:37;18.73;;;11.70;;
53293;SDS011;39181;53.440;5.644;2022-11-21T01:25:03;20.40;;;12.23;;
53293;SDS011;39181;53.440;5.644;2022-11-21T01:27:29;24.15;;;13.45;;
53293;SDS011;39181;53.440;5.644;2022-11-21T01:29:55;22.80;;;12.38;;
53293;SDS011;39181;53.440;5.644;2022-11-21T01:32:20;21.13;;;12.45;;
53293;SDS011;39181;53.440;5.644;2022-11-21T01:34:46;23.20;;;12.50;;
53293;SDS011;39181;53.440;5.644;2022-11-21T01:37:11;26.45;;;13.65;;
53293;SDS011;39181;53.440;5.644;2022-11-21T01:39:37;22.92;;;12.65;;
53293;SDS011;39181;53.440;5.644;2022-11-21T01:42:02;22.23;;;12.68;;
53293;SDS011;39181;53.440;5.644;2022-11-21T01:44:48;24.65;;;12.75;;
53293;SDS011;39181;53.440;5.644;2022-11-21T01:47:18;27.48;;;14.02;;
53293;SDS011;39181;53.440;5.644;2022-11-21T01:49:44;23.05;;;12.10;;
53293;SDS011;39181;53.440;5.644;2022-11-21T01:52:12;22.60;;;12.73;;
53293;SDS011;39181;53.440;5.644;2022-11-21T02:02:45;23.48;;;13.35;;
53293;SDS011;39181;53.440;5.644;2022-11-21T02:05:19;22.40;;;13.35;;
53293;SDS011;39181;53.440;5.644;2022-11-21T02:07:48;24.08;;;12.68;;
53293;SDS011;39181;53.440;5.644;2022-11-21T02:10:16;23.48;;;12.88;;
53293;SDS011;39181;53.440;5.644;2022-11-21T02:12:43;23.50;;;12.65;;
53293;SDS011;39181;53.440;5.644;2022-11-21T02:15:16;29.05;;;13.02;;
53293;SDS011;39181;53.440;5.644;2022-11-21T02:17:42;23.13;;;12.50;;
53293;SDS011;39181;53.440;5.644;2022-11-21T02:20:11;25.40;;;12.70;;
53293;SDS011;39181;53.440;5.644;2022-11-21T02:25:27;21.15;;;11.85;;
53293;SDS011;39181;53.440;5.644;2022-11-21T02:27:56;20.95;;;11.60;;
53293;SDS011;39181;53.440;5.644;2022-11-21T02:30:25;23.55;;;12.75;;
53293;SDS011;39181;53.440;5.644;2022-11-21T02:32:53;22.00;;;14.00;;
53293;SDS011;39181;53.440;5.644;2022-11-21T02:35:19;24.33;;;14.18;;
53293;SDS011;39181;53.440;5.644;2022-11-21T02:38:08;26.65;;;13.32;;
53293;SDS011;39181;53.440;5.644;2022-11-21T02:40:32;24.85;;;13.07;;
53293;SDS011;39181;53.440;5.644;2022-11-21T02:43:04;24.92;;;14.63;;
53293;SDS011;39181;53.440;5.644;2022-11-21T02:45:40;25.17;;;14.25;;
53293;SDS011;39181;53.440;5.644;2022-11-21T02:48:10;27.20;;;13.30;;
53293;SDS011;39181;53.440;5.644;2022-11-21T02:50:37;30.23;;;13.95;;
53293;SDS011;39181;53.440;5.644;2022-11-21T02:53:04;30.20;;;14.32;;
53293;SDS011;39181;53.440;5.644;2022-11-21T02:55:31;28.17;;;12.80;;
53293;SDS011;39181;53.440;5.644;2022-11-21T02:57:56;24.05;;;13.05;;
53293;SDS011;39181;53.440;5.644;2022-11-21T03:00:22;26.48;;;13.15;;
53293;SDS011;39181;53.440;5.644;2022-11-21T03:02:48;24.10;;;12.82;;
53293;SDS011;39181;53.440;5.644;2022-11-21T03:05:15;26.42;;;13.82;;
53293;SDS011;39181;53.440;5.644;2022-11-21T03:07:43;27.90;;;13.75;;
53293;SDS011;39181;53.440;5.644;2022-11-21T03:10:09;26.25;;;13.30;;
53293;SDS011;39181;53.440;5.644;2022-11-21T03:12:35;25.17;;;12.77;;
53293;SDS011;39181;53.440;5.644;2022-11-21T03:15:01;22.90;;;12.50;;
53293;SDS011;39181;53.440;5.644;2022-11-21T03:17:28;20.98;;;11.07;;
53293;SDS011;39181;53.440;5.644;2022-11-21T03:19:53;23.00;;;11.68;;
53293;SDS011;39181;53.440;5.644;2022-11-21T03:22:19;24.73;;;13.57;;
53293;SDS011;39181;53.440;5.644;2022-11-21T03:24:45;23.33;;;13.05;;
53293;SDS011;39181;53.440;5.644;2022-11-21T03:27:10;24.20;;;13.15;;
53293;SDS011;39181;53.440;5.644;2022-11-21T03:29:36;24.58;;;12.32;;
53293;SDS011;39181;53.440;5.644;2022-11-21T03:32:01;26.80;;;12.85;;
53293;SDS011;39181;53.440;5.644;2022-11-21T03:34:27;27.10;;;14.02;;
53293;SDS011;39181;53.440;5.644;2022-11-21T03:36:52;27.83;;;14.57;;
53293;SDS011;39181;53.440;5.644;2022-11-21T03:39:18;27.52;;;12.77;;
53293;SDS011;39181;53.440;5.644;2022-11-21T03:41:43;25.10;;;14.20;;
53293;SDS011;39181;53.440;5.644;2022-11-21T03:44:10;26.60;;;13.52;;
53293;SDS011;39181;53.440;5.644;2022-11-21T03:46:37;23.10;;;12.73;;
53293;SDS011;39181;53.440;5.644;2022-11-21T03:49:04;26.40;;;12.70;;
53293;SDS011;39181;53.440;5.644;2022-11-21T03:51:30;24.10;;;13.68;;
53293;SDS011;39181;53.440;5.644;2022-11-21T03:53:56;26.05;;;14.02;;
53293;SDS011;39181;53.440;5.644;2022-11-21T03:56:23;29.48;;;14.95;;
53293;SDS011;39181;53.440;5.644;2022-11-21T03:58:49;26.40;;;14.40;;
53293;SDS011;39181;53.440;5.644;2022-11-21T04:01:15;27.27;;;14.13;;
53293;SDS011;39181;53.440;5.644;2022-11-21T04:03:41;27.50;;;14.73;;
53293;SDS011;39181;53.440;5.644;2022-11-21T04:06:07;30.52;;;14.30;;
53293;SDS011;39181;53.440;5.644;2022-11-21T04:08:34;28.25;;;15.52;;
53293;SDS011;39181;53.440;5.644;2022-11-21T04:10:59;28.63;;;16.10;;
53293;SDS011;39181;53.440;5.644;2022-11-21T04:13:25;31.58;;;15.95;;
53293;SDS011;39181;53.440;5.644;2022-11-21T04:15:51;35.88;;;15.07;;
53293;SDS011;39181;53.440;5.644;2022-11-21T04:18:16;31.55;;;16.05;;
53293;SDS011;39181;53.440;5.644;2022-11-21T04:20:42;31.63;;;15.65;;
53293;SDS011;39181;53.440;5.644;2022-11-21T04:23:08;34.45;;;16.70;;
53293;SDS011;39181;53.440;5.644;2022-11-21T04:25:34;36.72;;;16.17;;
53293;SDS011;39181;53.440;5.644;2022-11-21T04:28:00;30.73;;;14.05;;
53293;SDS011;39181;53.440;5.644;2022-11-21T04:30:27;29.38;;;14.65;;
53293;SDS011;39181;53.440;5.644;2022-11-21T04:32:53;31.25;;;15.55;;
53293;SDS011;39181;53.440;5.644;2022-11-21T04:35:20;28.58;;;14.82;;
53293;SDS011;39181;53.440;5.644;2022-11-21T04:37:47;28.90;;;14.93;;
53293;SDS011;39181;53.440;5.644;2022-11-21T04:40:13;29.73;;;15.38;;
53293;SDS011;39181;53.440;5.644;2022-11-21T04:42:40;29.75;;;14.10;;
53293;SDS011;39181;53.440;5.644;2022-11-21T04:45:09;25.38;;;13.73;;
53293;SDS011;39181;53.440;5.644;2022-11-21T04:47:36;25.02;;;13.93;;
53293;SDS011;39181;53.440;5.644;2022-11-21T04:50:06;29.55;;;14.68;;
53293;SDS011;39181;53.440;5.644;2022-11-21T04:52:33;29.27;;;13.45;;
53293;SDS011;39181;53.440;5.644;2022-11-21T04:55:00;27.90;;;13.50;;
53293;SDS011;39181;53.440;5.644;2022-11-21T04:57:26;28.50;;;14.05;;
53293;SDS011;39181;53.440;5.644;2022-11-21T04:59:53;24.33;;;13.18;;
53293;SDS011;39181;53.440;5.644;2022-11-21T05:02:19;24.85;;;12.98;;
53293;SDS011;39181;53.440;5.644;2022-11-21T05:04:44;24.63;;;12.25;;
53293;SDS011;39181;53.440;5.644;2022-11-21T05:07:10;25.48;;;13.60;;
53293;SDS011;39181;53.440;5.644;2022-11-21T05:09:36;23.27;;;11.98;;
53293;SDS011;39181;53.440;5.644;2022-11-21T05:12:02;21.52;;;11.13;;
53293;SDS011;39181;53.440;5.644;2022-11-21T05:14:46;22.63;;;11.68;;
53293;SDS011;39181;53.440;5.644;2022-11-21T05:17:11;24.40;;;12.85;;
53293;SDS011;39181;53.440;5.644;2022-11-21T05:19:37;27.52;;;13.02;;
53293;SDS011;39181;53.440;5.644;2022-11-21T05:22:03;27.65;;;14.23;;
53293;SDS011;39181;53.440;5.644;2022-11-21T05:24:28;26.02;;;12.48;;
53293;SDS011;39181;53.440;5.644;2022-11-21T05:26:54;29.38;;;13.90;;
53293;SDS011;39181;53.440;5.644;2022-11-21T05:29:19;24.02;;;12.88;;
53293;SDS011;39181;53.440;5.644;2022-11-21T05:31:45;26.20;;;13.32;;
53293;SDS011;39181;53.440;5.644;2022-11-21T05:34:11;31.50;;;14.88;;
53293;SDS011;39181;53.440;5.644;2022-11-21T05:36:36;29.35;;;14.18;;
53293;SDS011;39181;53.440;5.644;2022-11-21T05:39:02;27.85;;;13.88;;
53293;SDS011;39181;53.440;5.644;2022-11-21T05:41:28;30.60;;;14.82;;
53293;SDS011;39181;53.440;5.644;2022-11-21T05:43:54;30.80;;;15.75;;
53293;SDS011;39181;53.440;5.644;2022-11-21T05:46:20;34.72;;;16.25;;
53293;SDS011;39181;53.440;5.644;2022-11-21T05:48:48;34.15;;;16.27;;
53293;SDS011;39181;53.440;5.644;2022-11-21T05:51:15;36.00;;;16.05;;
53293;SDS011;39181;53.440;5.644;2022-11-21T05:53:41;38.28;;;18.85;;
53293;SDS011;39181;53.440;5.644;2022-11-21T05:56:08;36.03;;;17.38;;
53293;SDS011;39181;53.440;5.644;2022-11-21T05:58:35;41.30;;;19.00;;
53293;SDS011;39181;53.440;5.644;2022-11-21T06:01:01;39.75;;;18.80;;
53293;SDS011;39181;53.440;5.644;2022-11-21T06:03:29;44.50;;;21.35;;
53293;SDS011;39181;53.440;5.644;2022-11-21T06:06:07;38.88;;;19.65;;
53293;SDS011;39181;53.440;5.644;2022-11-21T06:08:39;41.90;;;19.60;;
53293;SDS011;39181;53.440;5.644;2022-11-21T06:11:05;45.83;;;20.35;;
53293;SDS011;39181;53.440;5.644;2022-11-21T06:13:32;39.78;;;18.40;;
53293;SDS011;39181;53.440;5.644;2022-11-21T06:16:02;43.25;;;19.35;;
53293;SDS011;39181;53.440;5.644;2022-11-21T06:18:31;50.75;;;21.35;;
53293;SDS011;39181;53.440;5.644;2022-11-21T06:21:17;42.50;;;19.60;;
53293;SDS011;39181;53.440;5.644;2022-11-21T06:23:46;41.83;;;18.85;;
53293;SDS011;39181;53.440;5.644;2022-11-21T06:26:16;41.95;;;19.05;;
53293;SDS011;39181;53.440;5.644;2022-11-21T06:28:43;46.58;;;19.88;;
53293;SDS011;39181;53.440;5.644;2022-11-21T06:31:10;47.28;;;21.38;;
53293;SDS011;39181;53.440;5.644;2022-11-21T06:33:46;47.15;;;22.05;;
53293;SDS011;39181;53.440;5.644;2022-11-21T06:36:16;50.70;;;22.02;;
53293;SDS011;39181;53.440;5.644;2022-11-21T06:38:42;40.63;;;19.63;;
53293;SDS011;39181;53.440;5.644;2022-11-21T06:41:12;41.63;;;20.40;;
53293;SDS011;39181;53.440;5.644;2022-11-21T06:43:43;53.47;;;22.55;;
53293;SDS011;39181;53.440;5.644;2022-11-21T06:46:09;47.60;;;22.13;;
53293;SDS011;39181;53.440;5.644;2022-11-21T06:48:35;47.70;;;21.05;;
53293;SDS011;39181;53.440;5.644;2022-11-21T06:51:05;43.53;;;20.75;;
53293;SDS011;39181;53.440;5.644;2022-11-21T06:53:42;44.92;;;20.23;;
53293;SDS011;39181;53.440;5.644;2022-11-21T06:56:08;39.83;;;18.73;;
53293;SDS011;39181;53.440;5.644;2022-11-21T06:58:33;44.05;;;20.17;;
53293;SDS011;39181;53.440;5.644;2022-11-21T07:01:02;42.30;;;18.85;;
53293;SDS011;39181;53.440;5.644;2022-11-21T07:03:32;42.17;;;19.20;;
53293;SDS011;39181;53.440;5.644;2022-11-21T07:05:58;42.45;;;19.05;;
53293;SDS011;39181;53.440;5.644;2022-11-21T07:08:29;40.35;;;18.52;;
53293;SDS011;39181;53.440;5.644;2022-11-21T07:10:59;38.47;;;19.45;;
53293;SDS011;39181;53.440;5.644;2022-11-21T07:13:26;38.30;;;18.23;;
53293;SDS011;39181;53.440;5.644;2022-11-21T07:15:53;40.80;;;17.85;;
53293;SDS011;39181;53.440;5.644;2022-11-21T07:18:20;42.17;;;17.10;;
53293;SDS011;39181;53.440;5.644;2022-11-21T07:20:47;35.25;;;16.98;;
53293;SDS011;39181;53.440;5.644;2022-11-21T07:23:12;31.77;;;15.07;;
53293;SDS011;39181;53.440;5.644;2022-11-21T07:25:38;36.50;;;15.40;;
53293;SDS011;39181;53.440;5.644;2022-11-21T07:28:04;37.05;;;16.35;;
53293;SDS011;39181;53.440;5.644;2022-11-21T07:30:31;31.83;;;15.25;;
53293;SDS011;39181;53.440;5.644;2022-11-21T07:32:58;33.20;;;15.20;;
53293;SDS011;39181;53.440;5.644;2022-11-21T07:35:25;36.28;;;15.65;;
53293;SDS011;39181;53.440;5.644;2022-11-21T07:37:51;40.38;;;15.77;;
53293;SDS011;39181;53.440;5.644;2022-11-21T07:40:17;30.73;;;14.95;;
53293;SDS011;39181;53.440;5.644;2022-11-21T07:42:44;30.33;;;13.98;;
53293;SDS011;39181;53.440;5.644;2022-11-21T07:45:10;33.30;;;13.98;;
53293;SDS011;39181;53.440;5.644;2022-11-21T07:47:36;25.13;;;12.77;;
53293;SDS011;39181;53.440;5.644;2022-11-21T07:50:02;29.50;;;11.98;;
53293;SDS011;39181;53.440;5.644;2022-11-21T07:52:29;26.70;;;12.25;;
53293;SDS011;39181;53.440;5.644;2022-11-21T07:54:55;28.48;;;12.43;;
53293;SDS011;39181;53.440;5.644;2022-11-21T07:57:21;27.17;;;13.40;;
53293;SDS011;39181;53.440;5.644;2022-11-21T07:59:47;26.40;;;12.40;;
53293;SDS011;39181;53.440;5.644;2022-11-21T08:02:20;26.27;;;13.77;;
53293;SDS011;39181;53.440;5.644;2022-11-21T08:04:47;27.67;;;12.23;;
53293;SDS011;39181;53.440;5.644;2022-11-21T08:07:13;32.95;;;14.20;;
53293;SDS011;39181;53.440;5.644;2022-11-21T08:09:39;30.10;;;13.15;;
53293;SDS011;39181;53.440;5.644;2022-11-21T08:12:05;26.27;;;12.55;;
53293;SDS011;39181;53.440;5.644;2022-11-21T08:14:31;30.60;;;13.27;;
53293;SDS011;39181;53.440;5.644;2022-11-21T08:16:58;24.83;;;13.45;;
53293;SDS011;39181;53.440;5.644;2022-11-21T08:19:23;25.85;;;13.07;;
53293;SDS011;39181;53.440;5.644;2022-11-21T08:21:49;24.13;;;13.05;;
53293;SDS011;39181;53.440;5.644;2022-11-21T08:24:14;25.55;;;13.07;;
53293;SDS011;39181;53.440;5.644;2022-11-21T08:26:41;22.15;;;12.65;;
53293;SDS011;39181;53.440;5.644;2022-11-21T08:29:08;28.17;;;14.05;;
53293;SDS011;39181;53.440;5.644;2022-11-21T08:31:37;27.83;;;14.40;;
53293;SDS011;39181;53.440;5.644;2022-11-21T08:34:04;30.50;;;14.57;;
53293;SDS011;39181;53.440;5.644;2022-11-21T08:36:30;26.95;;;13.65;;
53293;SDS011;39181;53.440;5.644;2022-11-21T08:38:55;27.42;;;13.02;;
53293;SDS011;39181;53.440;5.644;2022-11-21T08:41:21;27.10;;;13.02;;
53293;SDS011;39181;53.440;5.644;2022-11-21T08:44:05;24.98;;;12.75;;
53293;SDS011;39181;53.440;5.644;2022-11-21T08:46:32;23.35;;;12.35;;
53293;SDS011;39181;53.440;5.644;2022-11-21T08:49:01;23.02;;;12.30;;
53293;SDS011;39181;53.440;5.644;2022-11-21T08:51:30;25.05;;;13.40;;
53293;SDS011;39181;53.440;5.644;2022-11-21T08:53:56;23.15;;;13.10;;
53293;SDS011;39181;53.440;5.644;2022-11-21T08:56:22;23.92;;;13.43;;
53293;SDS011;39181;53.440;5.644;2022-11-21T08:58:47;25.08;;;13.07;;
53293;SDS011;39181;53.440;5.644;2022-11-21T09:01:13;28.42;;;14.18;;
53293;SDS011;39181;53.440;5.644;2022-11-21T09:03:38;26.60;;;14.05;;
53293;SDS011;39181;53.440;5.644;2022-11-21T09:06:04;26.10;;;13.63;;
53293;SDS011;39181;53.440;5.644;2022-11-21T09:08:30;26.45;;;13.60;;
53293;SDS011;39181;53.440;5.644;2022-11-21T09:10:55;25.17;;;13.27;;
53293;SDS011;39181;53.440;5.644;2022-11-21T09:13:21;25.98;;;13.63;;
53293;SDS011;39181;53.440;5.644;2022-11-21T09:15:47;23.83;;;13.68;;
53293;SDS011;39181;53.440;5.644;2022-11-21T09:18:31;28.40;;;14.65;;
53293;SDS011;39181;53.440;5.644;2022-11-21T09:20:57;30.23;;;14.13;;
53293;SDS011;39181;53.440;5.644;2022-11-21T09:23:22;29.38;;;15.20;;
53293;SDS011;39181;53.440;5.644;2022-11-21T09:25:48;32.47;;;15.40;;
53293;SDS011;39181;53.440;5.644;2022-11-21T09:28:14;28.13;;;14.90;;
53293;SDS011;39181;53.440;5.644;2022-11-21T09:30:40;32.42;;;15.13;;
53293;SDS011;39181;53.440;5.644;2022-11-21T09:33:07;31.88;;;15.05;;
53293;SDS011;39181;53.440;5.644;2022-11-21T09:35:35;31.63;;;14.65;;
53293;SDS011;39181;53.440;5.644;2022-11-21T09:38:01;34.33;;;15.82;;
53293;SDS011;39181;53.440;5.644;2022-11-21T09:40:30;37.38;;;18.48;;
53293;SDS011;39181;53.440;5.644;2022-11-21T09:45:58;41.15;;;18.38;;
53293;SDS011;39181;53.440;5.644;2022-11-21T09:48:54;36.70;;;18.67;;
53293;SDS011;39181;53.440;5.644;2022-11-21T09:51:22;36.60;;;18.60;;
53293;SDS011;39181;53.440;5.644;2022-11-21T09:53:59;31.02;;;16.67;;
53293;SDS011;39181;53.440;5.644;2022-11-21T09:56:35;32.58;;;15.93;;
53293;SDS011;39181;53.440;5.644;2022-11-21T09:59:07;31.23;;;16.17;;
53293;SDS011;39181;53.440;5.644;2022-11-21T10:01:56;30.08;;;15.15;;
53293;SDS011;39181;53.440;5.644;2022-11-21T10:04:22;33.13;;;17.35;;
53293;SDS011;39181;53.440;5.644;2022-11-21T10:06:51;32.95;;;17.50;;
53293;SDS011;39181;53.440;5.644;2022-11-21T10:12:13;28.13;;;15.35;;
53293;SDS011;39181;53.440;5.644;2022-11-21T10:22:41;27.05;;;15.18;;
53293;SDS011;39181;53.440;5.644;2022-11-21T10:25:14;27.38;;;14.18;;
53293;SDS011;39181;53.440;5.644;2022-11-21T10:28:08;29.98;;;13.25;;
53293;SDS011;39181;53.440;5.644;2022-11-21T10:30:46;26.45;;;14.00;;
53293;SDS011;39181;53.440;5.644;2022-11-21T10:33:17;24.73;;;13.77;;
53293;SDS011;39181;53.440;5.644;2022-11-21T10:36:03;23.85;;;13.43;;
53293;SDS011;39181;53.440;5.644;2022-11-21T10:38:37;25.23;;;14.48;;
53293;SDS011;39181;53.440;5.644;2022-11-21T10:46:38;21.27;;;12.27;;
53293;SDS011;39181;53.440;5.644;2022-11-21T10:49:04;19.90;;;12.02;;
53293;SDS011;39181;53.440;5.644;2022-11-21T10:54:24;20.50;;;11.48;;
53293;SDS011;39181;53.440;5.644;2022-11-21T10:57:05;22.60;;;12.05;;
53293;SDS011;39181;53.440;5.644;2022-11-21T10:59:39;17.85;;;11.82;;
53293;SDS011;39181;53.440;5.644;2022-11-21T11:04:37;16.83;;;10.63;;
53293;SDS011;39181;53.440;5.644;2022-11-21T11:07:18;19.13;;;11.63;;
53293;SDS011;39181;53.440;5.644;2022-11-21T11:09:44;17.45;;;10.82;;
53293;SDS011;39181;53.440;5.644;2022-11-21T11:14:49;16.55;;;10.70;;
53293;SDS011;39181;53.440;5.644;2022-11-21T11:17:24;15.07;;;10.23;;
53293;SDS011;39181;53.440;5.644;2022-11-21T11:20:04;18.00;;;10.27;;
53293;SDS011;39181;53.440;5.644;2022-11-21T11:22:50;15.48;;;10.00;;
53293;SDS011;39181;53.440;5.644;2022-11-21T11:25:16;17.60;;;10.60;;
53293;SDS011;39181;53.440;5.644;2022-11-21T11:27:41;16.02;;;9.82;;
53293;SDS011;39181;53.440;5.644;2022-11-21T11:30:07;14.10;;;9.85;;
53293;SDS011;39181;53.440;5.644;2022-11-21T11:32:38;14.68;;;10.32;;
53293;SDS011;39181;53.440;5.644;2022-11-21T11:45:53;13.98;;;9.35;;
53293;SDS011;39181;53.440;5.644;2022-11-21T11:48:43;13.88;;;9.07;;
53293;SDS011;39181;53.440;5.644;2022-11-21T11:51:16;14.05;;;8.60;;
53293;SDS011;39181;53.440;5.644;2022-11-21T11:54:02;13.18;;;8.73;;
53293;SDS011;39181;53.440;5.644;2022-11-21T11:56:33;13.70;;;8.95;;
53293;SDS011;39181;53.440;5.644;2022-11-21T12:04:12;14.07;;;8.65;;
53293;SDS011;39181;53.440;5.644;2022-11-21T12:06:54;13.45;;;8.23;;
53293;SDS011;39181;53.440;5.644;2022-11-21T12:17:39;13.30;;;8.07;;
53293;SDS011;39181;53.440;5.644;2022-11-21T12:20:26;15.65;;;8.60;;
53293;SDS011;39181;53.440;5.644;2022-11-21T12:23:13;12.98;;;8.52;;
53293;SDS011;39181;53.440;5.644;2022-11-21T12:34:12;13.60;;;8.05;;
53293;SDS011;39181;53.440;5.644;2022-11-21T12:37:03;15.30;;;8.80;;
53293;SDS011;39181;53.440;5.644;2022-11-21T12:42:39;12.40;;;8.27;;
53293;SDS011;39181;53.440;5.644;2022-11-21T12:48:08;11.82;;;8.20;;
53293;SDS011;39181;53.440;5.644;2022-11-21T12:54:36;11.00;;;8.18;;
53293;SDS011;39181;53.440;5.644;2022-11-21T12:57:10;11.80;;;7.75;;
53293;SDS011;39181;53.440;5.644;2022-11-21T13:04:52;13.27;;;8.70;;
53293;SDS011;39181;53.440;5.644;2022-11-21T13:07:20;15.20;;;9.65;;
53293;SDS011;39181;53.440;5.644;2022-11-21T13:09:48;13.82;;;10.02;;
53293;SDS011;39181;53.440;5.644;2022-11-21T13:12:21;17.80;;;11.00;;
53293;SDS011;39181;53.440;5.644;2022-11-21T13:27:35;17.02;;;11.45;;
53293;SDS011;39181;53.440;5.644;2022-11-21T13:32:36;17.23;;;10.88;;
53293;SDS011;39181;53.440;5.644;2022-11-21T13:35:54;18.90;;;10.10;;
53293;SDS011;39181;53.440;5.644;2022-11-21T13:38:13;17.58;;;10.05;;
53293;SDS011;39181;53.440;5.644;2022-11-21T13:40:39;18.90;;;10.85;;
53293;SDS011;39181;53.440;5.644;2022-11-21T13:43:27;18.25;;;11.00;;
53293;SDS011;39181;53.440;5.644;2022-11-21T13:45:53;17.60;;;10.82;;
53293;SDS011;39181;53.440;5.644;2022-11-21T13:51:14;17.05;;;9.90;;
53293;SDS011;39181;53.440;5.644;2022-11-21T13:54:20;18.23;;;10.32;;
53293;SDS011;39181;53.440;5.644;2022-11-21T13:57:07;17.02;;;10.63;;
53293;SDS011;39181;53.440;5.644;2022-11-21T13:59:45;16.75;;;10.93;;
53293;SDS011;39181;53.440;5.644;2022-11-21T14:08:18;16.58;;;10.82;;
53293;SDS011;39181;53.440;5.644;2022-11-21T14:10:49;19.35;;;11.30;;
53293;SDS011;39181;53.440;5.644;2022-11-21T14:13:21;18.25;;;11.60;;
53293;SDS011;39181;53.440;5.644;2022-11-21T14:16:20;18.58;;;11.57;;
53293;SDS011;39181;53.440;5.644;2022-11-21T14:18:54;17.10;;;10.85;;
53293;SDS011;39181;53.440;5.644;2022-11-21T14:21:22;18.05;;;11.70;;
53293;SDS011;39181;53.440;5.644;2022-11-21T14:23:52;19.50;;;11.27;;
53293;SDS011;39181;53.440;5.644;2022-11-21T14:26:21;17.60;;;10.85;;
53293;SDS011;39181;53.440;5.644;2022-11-21T14:28:49;18.15;;;11.70;;
53293;SDS011;39181;53.440;5.644;2022-11-21T14:31:15;18.05;;;11.70;;
53293;SDS011;39181;53.440;5.644;2022-11-21T14:33:41;18.08;;;10.90;;
53293;SDS011;39181;53.440;5.644;2022-11-21T14:36:21;18.15;;;11.82;;
53293;SDS011;39181;53.440;5.644;2022-11-21T14:46:22;22.65;;;13.15;;
53293;SDS011;39181;53.440;5.644;2022-11-21T14:48:49;21.42;;;13.35;;
53293;SDS011;39181;53.440;5.644;2022-11-21T14:51:16;24.00;;;14.00;;
53293;SDS011;39181;53.440;5.644;2022-11-21T14:53:46;22.30;;;13.77;;
53293;SDS011;39181;53.440;5.644;2022-11-21T14:56:23;23.48;;;13.35;;
53293;SDS011;39181;53.440;5.644;2022-11-21T14:58:51;22.42;;;12.65;;
53293;SDS011;39181;53.440;5.644;2022-11-21T15:01:22;26.40;;;14.52;;
53293;SDS011;39181;53.440;5.644;2022-11-21T15:04:05;21.30;;;12.50;;
53293;SDS011;39181;53.440;5.644;2022-11-21T15:06:39;23.60;;;13.27;;
53293;SDS011;39181;53.440;5.644;2022-11-21T15:09:11;25.50;;;13.65;;
53293;SDS011;39181;53.440;5.644;2022-11-21T15:11:50;23.35;;;13.15;;
53293;SDS011;39181;53.440;5.644;2022-11-21T15:14:32;21.83;;;11.93;;
53293;SDS011;39181;53.440;5.644;2022-11-21T15:16:59;26.38;;;13.88;;
53293;SDS011;39181;53.440;5.644;2022-11-21T15:19:28;25.95;;;14.80;;
53293;SDS011;39181;53.440;5.644;2022-11-21T15:21:56;25.83;;;14.23;;
53293;SDS011;39181;53.440;5.644;2022-11-21T15:27:26;27.65;;;14.15;;
53293;SDS011;39181;53.440;5.644;2022-11-21T15:35:38;30.48;;;15.60;;
53293;SDS011;39181;53.440;5.644;2022-11-21T15:38:13;26.95;;;13.82;;
53293;SDS011;39181;53.440;5.644;2022-11-21T15:41:04;28.85;;;13.02;;
53293;SDS011;39181;53.440;5.644;2022-11-21T15:46:12;27.38;;;14.27;;
53293;SDS011;39181;53.440;5.644;2022-11-21T15:48:39;30.13;;;13.85;;
53293;SDS011;39181;53.440;5.644;2022-11-21T15:51:07;28.98;;;13.43;;
53293;SDS011;39181;53.440;5.644;2022-11-21T15:53:34;25.58;;;13.07;;
53293;SDS011;39181;53.440;5.644;2022-11-21T15:56:00;37.13;;;14.27;;
53293;SDS011;39181;53.440;5.644;2022-11-21T15:58:25;35.30;;;14.07;;
53293;SDS011;39181;53.440;5.644;2022-11-21T16:00:51;38.22;;;14.20;;
53293;SDS011;39181;53.440;5.644;2022-11-21T16:03:16;38.88;;;14.02;;
53293;SDS011;39181;53.440;5.644;2022-11-21T16:05:42;38.03;;;14.35;;
53293;SDS011;39181;53.440;5.644;2022-11-21T16:08:07;43.55;;;14.95;;
53293;SDS011;39181;53.440;5.644;2022-11-21T16:10:33;26.65;;;12.65;;
53293;SDS011;39181;53.440;5.644;2022-11-21T16:13:00;37.25;;;14.70;;
53293;SDS011;39181;53.440;5.644;2022-11-21T16:15:26;38.20;;;14.50;;
53293;SDS011;39181;53.440;5.644;2022-11-21T16:17:51;32.10;;;14.07;;
53293;SDS011;39181;53.440;5.644;2022-11-21T16:20:17;33.90;;;12.98;;
53293;SDS011;39181;53.440;5.644;2022-11-21T16:22:42;32.70;;;13.75;;
53293;SDS011;39181;53.440;5.644;2022-11-21T16:25:08;39.63;;;14.07;;
53293;SDS011;39181;53.440;5.644;2022-11-21T16:27:34;34.95;;;13.48;;
53293;SDS011;39181;53.440;5.644;2022-11-21T16:30:00;61.95;;;14.95;;
53293;SDS011;39181;53.440;5.644;2022-11-21T16:32:26;40.67;;;14.75;;
53293;SDS011;39181;53.440;5.644;2022-11-21T16:34:52;38.58;;;14.77;;
53293;SDS011;39181;53.440;5.644;2022-11-21T16:37:18;47.85;;;13.10;;
53293;SDS011;39181;53.440;5.644;2022-11-21T16:39:44;58.65;;;13.82;;
53293;SDS011;39181;53.440;5.644;2022-11-21T16:42:15;79.93;;;15.25;;